sensor_id;sensor_type;location;lat;lon;timestamp;pressure;altitude;pressure_sealevel;temperature;humidity
58092;BME280;43896;48.178;11.578;2023-05-01T00:02:18;95718.22;;;11.57;55.63
58092;BME280;43896;48.178;11.578;2023-05-01T00:04:43;95697.84;;;11.18;56.49
58092;BME280;43896;48.178;11.578;2023-05-01T00:07:09;95697.22;;;11.24;56.82
58092;BME280;43896;48.178;11.578;2023-05-01T00:09:34;95711.00;;;11.43;55.71
58092;BME280;43896;48.178;11.578;2023-05-01T00:12:00;95678.91;;;11.48;55.32
58092;BME280;43896;48.178;11.578;2023-05-01T00:14:27;95727.88;;;11.90;55.48
58092;BME280;43896;48.178;11.578;2023-05-01T00:16:53;95645.84;;;11.37;55.06
58092;BME280;43896;48.178;11.578;2023-05-01T00:19:18;95713.56;;;11.92;55.10
58092;BME280;43896;48.178;11.578;2023-05-01T00:21:45;95662.31;;;11.22;55.98
58092;BME280;43896;48.178;11.578;2023-05-01T00:24:12;95634.03;;;10.50;57.62
58092;BME280;43896;48.178;11.578;2023-05-01T00:26:37;95643.78;;;10.16;58.52
58092;BME280;43896;48.178;11.578;2023-05-01T00:29:02;95657.22;;;11.04;56.76
58092;BME280;43896;48.178;11.578;2023-05-01T00:31:28;95723.50;;;11.41;57.89
58092;BME280;43896;48.178;11.578;2023-05-01T00:33:53;95680.09;;;10.87;57.99
58092;BME280;43896;48.178;11.578;2023-05-01T00:36:19;95689.97;;;10.94;58.95
58092;BME280;43896;48.178;11.578;2023-05-01T00:38:44;95713.97;;;11.15;58.30
58092;BME280;43896;48.178;11.578;2023-05-01T00:41:10;95675.47;;;11.31;57.05
58092;BME280;43896;48.178;11.578;2023-05-01T00:43:36;95717.09;;;11.19;58.23
58092;BME280;43896;48.178;11.578;2023-05-01T00:46:01;95635.22;;;10.05;59.82
58092;BME280;43896;48.178;11.578;2023-05-01T00:48:27;95659.06;;;11.04;57.57
58092;BME280;43896;48.178;11.578;2023-05-01T00:50:52;95674.78;;;10.55;59.21
58092;BME280;43896;48.178;11.578;2023-05-01T00:53:20;95723.50;;;11.33;58.57
58092;BME280;43896;48.178;11.578;2023-05-01T00:55:46;95610.19;;;11.01;57.12
58092;BME280;43896;48.178;11.578;2023-05-01T00:58:15;95671.47;;;11.51;57.52
58092;BME280;43896;48.178;11.578;2023-05-01T01:00:41;95658.72;;;10.66;58.96
58092;BME280;43896;48.178;11.578;2023-05-01T01:03:07;95611.53;;;10.81;57.79
58092;BME280;43896;48.178;11.578;2023-05-01T01:05:39;95670.06;;;11.07;58.14
58092;BME280;43896;48.178;11.578;2023-05-01T01:11:31;95696.28;;;11.73;56.76
58092;BME280;43896;48.178;11.578;2023-05-01T01:14:15;95611.03;;;10.94;57.12
58092;BME280;43896;48.178;11.578;2023-05-01T01:16:56;95696.94;;;11.67;57.49
58092;BME280;43896;48.178;11.578;2023-05-01T01:22:09;95607.72;;;10.42;59.72
58092;BME280;43896;48.178;11.578;2023-05-01T01:25:02;95695.38;;;10.84;59.88
58092;BME280;43896;48.178;11.578;2023-05-01T01:30:32;95671.16;;;11.38;58.49
58092;BME280;43896;48.178;11.578;2023-05-01T01:35:26;95593.59;;;10.43;59.27
58092;BME280;43896;48.178;11.578;2023-05-01T01:38:15;95698.19;;;10.23;62.36
58092;BME280;43896;48.178;11.578;2023-05-01T01:40:54;95659.19;;;10.78;59.66
58092;BME280;43896;48.178;11.578;2023-05-01T01:43:22;95609.91;;;10.80;58.42
58092;BME280;43896;48.178;11.578;2023-05-01T01:45:59;95680.38;;;10.51;60.18
58092;BME280;43896;48.178;11.578;2023-05-01T01:48:30;95582.88;;;10.20;59.49
58092;BME280;43896;48.178;11.578;2023-05-01T01:50:58;95640.91;;;10.43;59.07
58092;BME280;43896;48.178;11.578;2023-05-01T01:53:27;95673.81;;;10.97;58.75
58092;BME280;43896;48.178;11.578;2023-05-01T01:55:55;95624.34;;;10.92;58.45
58092;BME280;43896;48.178;11.578;2023-05-01T01:58:23;95575.19;;;10.43;58.90
58092;BME280;43896;48.178;11.578;2023-05-01T02:00:51;95622.53;;;10.93;57.99
58092;BME280;43896;48.178;11.578;2023-05-01T02:03:18;95640.94;;;10.93;58.35
58092;BME280;43896;48.178;11.578;2023-05-01T02:05:45;95571.06;;;10.57;58.41
58092;BME280;43896;48.178;11.578;2023-05-01T02:08:12;95577.19;;;10.49;57.99
58092;BME280;43896;48.178;11.578;2023-05-01T02:10:40;95600.00;;;10.41;58.90
58092;BME280;43896;48.178;11.578;2023-05-01T02:13:07;95637.50;;;10.84;58.79
58092;BME280;43896;48.178;11.578;2023-05-01T02:15:33;95624.50;;;10.49;59.21
58092;BME280;43896;48.178;11.578;2023-05-01T02:18:02;95621.03;;;10.32;59.40
58092;BME280;43896;48.178;11.578;2023-05-01T02:20:29;95593.19;;;9.54;61.70
58092;BME280;43896;48.178;11.578;2023-05-01T02:22:55;95582.28;;;9.07;63.23
58092;BME280;43896;48.178;11.578;2023-05-01T02:25:21;95598.25;;;9.48;62.51
58092;BME280;43896;48.178;11.578;2023-05-01T02:27:52;95613.59;;;10.28;60.77
58092;BME280;43896;48.178;11.578;2023-05-01T02:30:19;95574.72;;;10.31;59.37
58092;BME280;43896;48.178;11.578;2023-05-01T02:32:45;95576.84;;;10.44;59.38
58092;BME280;43896;48.178;11.578;2023-05-01T02:35:10;95638.00;;;10.87;58.73
58092;BME280;43896;48.178;11.578;2023-05-01T02:37:36;95622.84;;;9.89;61.04
58092;BME280;43896;48.178;11.578;2023-05-01T02:40:03;95608.03;;;9.72;62.02
58092;BME280;43896;48.178;11.578;2023-05-01T02:42:28;95546.97;;;9.70;60.99
58092;BME280;43896;48.178;11.578;2023-05-01T02:45:21;95570.47;;;9.88;60.86
58092;BME280;43896;48.178;11.578;2023-05-01T02:47:50;95553.75;;;9.89;61.26
58092;BME280;43896;48.178;11.578;2023-05-01T02:50:19;95612.03;;;10.68;59.62
58092;BME280;43896;48.178;11.578;2023-05-01T02:52:48;95543.94;;;10.16;59.65
58092;BME280;43896;48.178;11.578;2023-05-01T02:55:14;95582.72;;;10.30;60.55
58092;BME280;43896;48.178;11.578;2023-05-01T02:57:41;95567.13;;;9.69;61.83
58092;BME280;43896;48.178;11.578;2023-05-01T03:00:07;95613.63;;;10.36;61.14
58092;BME280;43896;48.178;11.578;2023-05-01T03:02:40;95575.56;;;9.89;61.94
58092;BME280;43896;48.178;11.578;2023-05-01T03:05:06;95527.31;;;9.82;61.42
58092;BME280;43896;48.178;11.578;2023-05-01T03:07:32;95611.19;;;10.67;60.27
58092;BME280;43896;48.178;11.578;2023-05-01T03:10:03;95505.34;;;10.16;59.87
58092;BME280;43896;48.178;11.578;2023-05-01T03:12:29;95552.19;;;10.54;60.21
58092;BME280;43896;48.178;11.578;2023-05-01T03:14:55;95516.53;;;10.35;59.84
58092;BME280;43896;48.178;11.578;2023-05-01T03:17:21;95565.00;;;10.65;60.05
58092;BME280;43896;48.178;11.578;2023-05-01T03:19:46;95584.56;;;10.79;59.45
58092;BME280;43896;48.178;11.578;2023-05-01T03:22:13;95570.78;;;9.85;62.15
58092;BME280;43896;48.178;11.578;2023-05-01T03:24:38;95508.81;;;8.72;64.89
58092;BME280;43896;48.178;11.578;2023-05-01T03:27:03;95549.13;;;8.35;67.27
58092;BME280;43896;48.178;11.578;2023-05-01T03:29:29;95558.91;;;8.69;67.36
58092;BME280;43896;48.178;11.578;2023-05-01T03:31:55;95519.69;;;8.59;66.08
58092;BME280;43896;48.178;11.578;2023-05-01T03:34:21;95539.03;;;8.58;66.33
58092;BME280;43896;48.178;11.578;2023-05-01T03:36:47;95620.25;;;9.20;66.15
58092;BME280;43896;48.178;11.578;2023-05-01T03:39:13;95511.41;;;9.33;63.48
58092;BME280;43896;48.178;11.578;2023-05-01T03:41:38;95588.84;;;9.80;63.55
58092;BME280;43896;48.178;11.578;2023-05-01T03:44:03;95601.91;;;10.14;62.43
58092;BME280;43896;48.178;11.578;2023-05-01T03:46:29;95603.13;;;10.36;62.20
58092;BME280;43896;48.178;11.578;2023-05-01T03:48:54;95501.84;;;9.83;61.80
58092;BME280;43896;48.178;11.578;2023-05-01T03:51:20;95522.59;;;10.02;60.88
58092;BME280;43896;48.178;11.578;2023-05-01T03:53:45;95547.19;;;10.18;61.09
58092;BME280;43896;48.178;11.578;2023-05-01T03:56:10;95574.34;;;10.35;61.18
58092;BME280;43896;48.178;11.578;2023-05-01T03:58:36;95570.72;;;10.27;61.17
58092;BME280;43896;48.178;11.578;2023-05-01T04:01:01;95607.06;;;10.48;61.21
58092;BME280;43896;48.178;11.578;2023-05-01T04:03:28;95562.66;;;10.21;61.65
58092;BME280;43896;48.178;11.578;2023-05-01T04:05:53;95580.34;;;9.94;63.09
58092;BME280;43896;48.178;11.578;2023-05-01T04:08:19;95552.41;;;8.99;65.34
58092;BME280;43896;48.178;11.578;2023-05-01T04:10:44;95536.34;;;8.50;67.69
58092;BME280;43896;48.178;11.578;2023-05-01T04:13:09;95568.09;;;8.47;68.02
58092;BME280;43896;48.178;11.578;2023-05-01T04:15:36;95563.56;;;8.75;66.63
58092;BME280;43896;48.178;11.578;2023-05-01T04:18:03;95555.91;;;9.08;66.16
58092;BME280;43896;48.178;11.578;2023-05-01T04:20:28;95549.22;;;9.56;64.64
58092;BME280;43896;48.178;11.578;2023-05-01T04:22:53;95515.38;;;9.03;65.77
58092;BME280;43896;48.178;11.578;2023-05-01T04:25:21;95565.56;;;9.93;63.92
58092;BME280;43896;48.178;11.578;2023-05-01T04:27:47;95492.97;;;9.67;62.84
58092;BME280;43896;48.178;11.578;2023-05-01T04:30:12;95534.06;;;10.01;63.15
58092;BME280;43896;48.178;11.578;2023-05-01T04:32:38;95496.59;;;9.83;63.06
58092;BME280;43896;48.178;11.578;2023-05-01T04:35:03;95502.34;;;9.86;62.40
58092;BME280;43896;48.178;11.578;2023-05-01T04:37:29;95535.72;;;10.10;62.42
58092;BME280;43896;48.178;11.578;2023-05-01T04:39:54;95576.19;;;10.34;61.77
58092;BME280;43896;48.178;11.578;2023-05-01T04:42:20;95489.50;;;9.58;62.87
58092;BME280;43896;48.178;11.578;2023-05-01T04:44:45;95533.91;;;10.11;62.84
58092;BME280;43896;48.178;11.578;2023-05-01T04:47:13;95540.00;;;10.28;62.24
58092;BME280;43896;48.178;11.578;2023-05-01T04:49:39;95594.28;;;10.45;62.09
58092;BME280;43896;48.178;11.578;2023-05-01T04:52:04;95563.38;;;9.72;64.42
58092;BME280;43896;48.178;11.578;2023-05-01T04:54:30;95519.69;;;9.54;63.38
58092;BME280;43896;48.178;11.578;2023-05-01T04:56:55;95522.53;;;9.86;62.73
58092;BME280;43896;48.178;11.578;2023-05-01T04:59:21;95580.94;;;10.55;62.18
58092;BME280;43896;48.178;11.578;2023-05-01T05:01:46;95561.56;;;10.48;61.84
58092;BME280;43896;48.178;11.578;2023-05-01T05:04:12;95594.25;;;10.37;62.70
58092;BME280;43896;48.178;11.578;2023-05-01T05:06:37;95533.00;;;9.61;64.04
58092;BME280;43896;48.178;11.578;2023-05-01T05:09:02;95570.72;;;10.11;63.47
58092;BME280;43896;48.178;11.578;2023-05-01T05:11:28;95556.56;;;9.95;62.97
58092;BME280;43896;48.178;11.578;2023-05-01T05:13:53;95543.63;;;9.17;65.07
58092;BME280;43896;48.178;11.578;2023-05-01T05:16:18;95558.66;;;9.07;66.67
58092;BME280;43896;48.178;11.578;2023-05-01T05:18:44;95540.84;;;8.84;66.28
58092;BME280;43896;48.178;11.578;2023-05-01T05:21:09;95603.19;;;9.25;67.47
58092;BME280;43896;48.178;11.578;2023-05-01T05:23:35;95602.47;;;9.41;66.80
58092;BME280;43896;48.178;11.578;2023-05-01T05:26:01;95559.22;;;9.18;66.40
58092;BME280;43896;48.178;11.578;2023-05-01T05:28:27;95532.06;;;9.95;64.25
58092;BME280;43896;48.178;11.578;2023-05-01T05:30:56;95550.41;;;9.70;63.90
58092;BME280;43896;48.178;11.578;2023-05-01T05:33:21;95557.47;;;10.37;62.85
58092;BME280;43896;48.178;11.578;2023-05-01T05:35:49;95597.47;;;10.23;63.46
58092;BME280;43896;48.178;11.578;2023-05-01T05:38:15;95562.91;;;9.76;63.43
58092;BME280;43896;48.178;11.578;2023-05-01T05:40:40;95545.94;;;10.46;62.31
58092;BME280;43896;48.178;11.578;2023-05-01T05:43:06;95592.78;;;10.76;61.78
58092;BME280;43896;48.178;11.578;2023-05-01T05:45:34;95600.34;;;10.79;61.60
58092;BME280;43896;48.178;11.578;2023-05-01T05:48:00;95518.34;;;9.50;63.03
58092;BME280;43896;48.178;11.578;2023-05-01T05:50:25;95544.34;;;9.27;64.72
58092;BME280;43896;48.178;11.578;2023-05-01T05:52:51;95545.25;;;9.10;65.00
58092;BME280;43896;48.178;11.578;2023-05-01T05:55:16;95580.03;;;9.46;65.03
58092;BME280;43896;48.178;11.578;2023-05-01T05:57:42;95551.91;;;9.38;64.71
58092;BME280;43896;48.178;11.578;2023-05-01T06:00:07;95592.28;;;10.39;62.67
58092;BME280;43896;48.178;11.578;2023-05-01T06:02:35;95567.06;;;10.12;62.22
58092;BME280;43896;48.178;11.578;2023-05-01T06:05:00;95588.75;;;9.98;63.43
58092;BME280;43896;48.178;11.578;2023-05-01T06:07:25;95553.00;;;9.62;64.56
58092;BME280;43896;48.178;11.578;2023-05-01T06:09:55;95597.38;;;10.74;61.44
58092;BME280;43896;48.178;11.578;2023-05-01T06:12:25;95537.72;;;10.33;61.11
58092;BME280;43896;48.178;11.578;2023-05-01T06:14:51;95543.41;;;10.04;61.79
58092;BME280;43896;48.178;11.578;2023-05-01T06:17:17;95540.81;;;10.28;61.46
58092;BME280;43896;48.178;11.578;2023-05-01T06:19:42;95515.81;;;9.91;62.24
58092;BME280;43896;48.178;11.578;2023-05-01T06:22:10;95557.66;;;9.76;64.27
58092;BME280;43896;48.178;11.578;2023-05-01T06:24:35;95574.88;;;10.46;61.91
58092;BME280;43896;48.178;11.578;2023-05-01T06:27:01;95601.19;;;10.63;61.88
58092;BME280;43896;48.178;11.578;2023-05-01T06:29:27;95531.78;;;10.06;62.90
58092;BME280;43896;48.178;11.578;2023-05-01T06:31:52;95576.94;;;11.25;60.90
58092;BME280;43896;48.178;11.578;2023-05-01T06:34:18;95528.88;;;11.31;58.84
58092;BME280;43896;48.178;11.578;2023-05-01T06:36:43;95530.47;;;10.84;60.34
58092;BME280;43896;48.178;11.578;2023-05-01T06:39:08;95551.41;;;11.25;59.85
58092;BME280;43896;48.178;11.578;2023-05-01T06:41:34;95535.09;;;10.25;61.11
58092;BME280;43896;48.178;11.578;2023-05-01T06:44:00;95550.88;;;10.33;61.30
58092;BME280;43896;48.178;11.578;2023-05-01T06:46:25;95536.69;;;10.01;61.37
58092;BME280;43896;48.178;11.578;2023-05-01T06:48:50;95614.09;;;10.23;62.70
58092;BME280;43896;48.178;11.578;2023-05-01T06:51:19;95558.84;;;9.90;62.81
58092;BME280;43896;48.178;11.578;2023-05-01T06:53:44;95553.28;;;10.10;62.26
58092;BME280;43896;48.178;11.578;2023-05-01T06:56:10;95548.69;;;11.02;59.24
58092;BME280;43896;48.178;11.578;2023-05-01T06:58:38;95538.72;;;10.48;59.65
58092;BME280;43896;48.178;11.578;2023-05-01T07:01:07;95580.13;;;10.63;60.90
58092;BME280;43896;48.178;11.578;2023-05-01T07:03:32;95594.59;;;10.67;60.86
58092;BME280;43896;48.178;11.578;2023-05-01T07:05:57;95615.94;;;10.97;61.40
58092;BME280;43896;48.178;11.578;2023-05-01T07:08:23;95615.41;;;11.82;58.93
58092;BME280;43896;48.178;11.578;2023-05-01T07:10:48;95587.19;;;11.59;58.16
58092;BME280;43896;48.178;11.578;2023-05-01T07:13:21;95577.38;;;12.16;56.24
58092;BME280;43896;48.178;11.578;2023-05-01T07:15:54;95622.38;;;11.67;58.43
58092;BME280;43896;48.178;11.578;2023-05-01T07:18:20;95525.72;;;10.63;59.38
58092;BME280;43896;48.178;11.578;2023-05-01T07:20:45;95543.97;;;10.65;59.93
58092;BME280;43896;48.178;11.578;2023-05-01T07:23:11;95558.44;;;10.77;60.30
58092;BME280;43896;48.178;11.578;2023-05-01T07:25:36;95534.59;;;10.38;61.12
58092;BME280;43896;48.178;11.578;2023-05-01T07:28:02;95526.72;;;10.46;61.34
58092;BME280;43896;48.178;11.578;2023-05-01T07:30:29;95552.38;;;10.52;60.84
58092;BME280;43896;48.178;11.578;2023-05-01T07:32:55;95532.97;;;10.45;61.66
58092;BME280;43896;48.178;11.578;2023-05-01T07:35:22;95593.25;;;10.96;61.48
58092;BME280;43896;48.178;11.578;2023-05-01T07:37:52;95522.47;;;11.17;59.00
58092;BME280;43896;48.178;11.578;2023-05-01T07:40:17;95542.66;;;11.81;56.63
58092;BME280;43896;48.178;11.578;2023-05-01T07:42:43;95516.13;;;12.14;55.35
58092;BME280;43896;48.178;11.578;2023-05-01T07:45:08;95588.72;;;12.86;53.83
58092;BME280;43896;48.178;11.578;2023-05-01T07:47:34;95564.66;;;12.43;54.50
58092;BME280;43896;48.178;11.578;2023-05-01T07:50:01;95568.16;;;12.43;55.22
58092;BME280;43896;48.178;11.578;2023-05-01T07:52:27;95606.91;;;13.04;55.15
58092;BME280;43896;48.178;11.578;2023-05-01T07:54:52;95557.09;;;13.01;53.06
58092;BME280;43896;48.178;11.578;2023-05-01T07:57:18;95617.00;;;13.53;52.22
58092;BME280;43896;48.178;11.578;2023-05-01T07:59:44;95567.13;;;13.05;53.65
58092;BME280;43896;48.178;11.578;2023-05-01T08:02:09;95577.31;;;13.23;53.24
58092;BME280;43896;48.178;11.578;2023-05-01T08:04:34;95587.13;;;13.38;53.40
58092;BME280;43896;48.178;11.578;2023-05-01T08:07:00;95611.63;;;13.61;53.60
58092;BME280;43896;48.178;11.578;2023-05-01T08:09:25;95613.63;;;13.59;53.26
58092;BME280;43896;48.178;11.578;2023-05-01T08:11:50;95558.84;;;13.23;53.36
58092;BME280;43896;48.178;11.578;2023-05-01T08:14:19;95580.41;;;13.27;53.26
58092;BME280;43896;48.178;11.578;2023-05-01T08:16:47;95631.59;;;13.64;53.60
58092;BME280;43896;48.178;11.578;2023-05-01T08:19:18;95572.69;;;13.25;53.35
58092;BME280;43896;48.178;11.578;2023-05-01T08:21:46;95599.50;;;12.99;55.11
58092;BME280;43896;48.178;11.578;2023-05-01T08:24:11;95576.66;;;13.06;53.73
58092;BME280;43896;48.178;11.578;2023-05-01T08:26:36;95613.38;;;13.39;53.62
58092;BME280;43896;48.178;11.578;2023-05-01T08:29:02;95612.28;;;13.25;53.85
58092;BME280;43896;48.178;11.578;2023-05-01T08:31:27;95608.47;;;13.28;54.07
58092;BME280;43896;48.178;11.578;2023-05-01T08:33:53;95619.69;;;13.30;54.16
58092;BME280;43896;48.178;11.578;2023-05-01T08:36:18;95627.09;;;13.35;53.29
58092;BME280;43896;48.178;11.578;2023-05-01T08:38:43;95641.56;;;13.39;53.85
58092;BME280;43896;48.178;11.578;2023-05-01T08:41:15;95616.75;;;13.25;54.06
58092;BME280;43896;48.178;11.578;2023-05-01T08:43:41;95572.19;;;12.92;54.40
58092;BME280;43896;48.178;11.578;2023-05-01T08:46:11;95632.56;;;13.33;54.64
58092;BME280;43896;48.178;11.578;2023-05-01T08:48:41;95614.41;;;13.30;55.22
58092;BME280;43896;48.178;11.578;2023-05-01T08:51:08;95648.63;;;13.46;55.60
58092;BME280;43896;48.178;11.578;2023-05-01T08:53:34;95628.63;;;13.29;56.65
58092;BME280;43896;48.178;11.578;2023-05-01T08:56:00;95645.13;;;13.46;56.08
58092;BME280;43896;48.178;11.578;2023-05-01T08:58:28;95618.47;;;13.18;56.96
58092;BME280;43896;48.178;11.578;2023-05-01T09:00:55;95654.25;;;13.43;56.45
58092;BME280;43896;48.178;11.578;2023-05-01T09:03:21;95635.06;;;13.26;57.23
58092;BME280;43896;48.178;11.578;2023-05-01T09:05:48;95653.19;;;13.29;56.94
58092;BME280;43896;48.178;11.578;2023-05-01T09:08:13;95641.75;;;12.99;57.95
58092;BME280;43896;48.178;11.578;2023-05-01T09:10:41;95644.25;;;12.92;58.84
58092;BME280;43896;48.178;11.578;2023-05-01T09:13:09;95659.91;;;13.17;58.25
58092;BME280;43896;48.178;11.578;2023-05-01T09:15:34;95655.16;;;13.12;57.88
58092;BME280;43896;48.178;11.578;2023-05-01T09:18:00;95641.03;;;13.05;57.96
58092;BME280;43896;48.178;11.578;2023-05-01T09:20:25;95669.56;;;12.87;59.76
58092;BME280;43896;48.178;11.578;2023-05-01T09:22:51;95652.97;;;12.78;59.93
58092;BME280;43896;48.178;11.578;2023-05-01T09:25:17;95661.41;;;12.19;62.71
58092;BME280;43896;48.178;11.578;2023-05-01T09:27:43;95614.59;;;12.44;60.99
58092;BME280;43896;48.178;11.578;2023-05-01T09:30:29;95666.56;;;12.90;61.93
58092;BME280;43896;48.178;11.578;2023-05-01T09:33:11;95637.78;;;12.80;61.95
58092;BME280;43896;48.178;11.578;2023-05-01T09:35:51;95677.78;;;13.15;61.68
58092;BME280;43896;48.178;11.578;2023-05-01T09:38:22;95678.94;;;13.12;62.66
58092;BME280;43896;48.178;11.578;2023-05-01T09:40:48;95679.47;;;12.85;64.91
58092;BME280;43896;48.178;11.578;2023-05-01T09:43:23;95661.28;;;12.90;64.72
58092;BME280;43896;48.178;11.578;2023-05-01T09:48:25;95665.50;;;12.99;64.24
58092;BME280;43896;48.178;11.578;2023-05-01T09:50:50;95638.75;;;12.56;66.01
58092;BME280;43896;48.178;11.578;2023-05-01T09:53:16;95649.19;;;12.49;65.40
58092;BME280;43896;48.178;11.578;2023-05-01T09:55:41;95651.06;;;12.41;66.20
58092;BME280;43896;48.178;11.578;2023-05-01T09:58:06;95631.28;;;12.45;65.89
58092;BME280;43896;48.178;11.578;2023-05-01T10:00:46;95681.56;;;12.66;66.71
58092;BME280;43896;48.178;11.578;2023-05-01T10:03:12;95672.03;;;12.65;66.56
58092;BME280;43896;48.178;11.578;2023-05-01T10:05:42;95684.38;;;12.65;66.34
58092;BME280;43896;48.178;11.578;2023-05-01T10:08:11;95666.81;;;12.57;67.28
58092;BME280;43896;48.178;11.578;2023-05-01T10:10:39;95671.72;;;12.60;67.55
58092;BME280;43896;48.178;11.578;2023-05-01T10:13:16;95648.38;;;12.49;67.19
58092;BME280;43896;48.178;11.578;2023-05-01T10:15:42;95646.50;;;12.34;67.20
58092;BME280;43896;48.178;11.578;2023-05-01T10:18:09;95627.47;;;12.16;67.58
58092;BME280;43896;48.178;11.578;2023-05-01T10:20:35;95692.84;;;12.60;69.35
58092;BME280;43896;48.178;11.578;2023-05-01T10:23:01;95665.03;;;12.49;68.20
58092;BME280;43896;48.178;11.578;2023-05-01T10:25:30;95676.22;;;12.51;67.12
58092;BME280;43896;48.178;11.578;2023-05-01T10:27:56;95689.91;;;12.55;67.66
58092;BME280;43896;48.178;11.578;2023-05-01T10:30:22;95700.16;;;12.50;66.53
58092;BME280;43896;48.178;11.578;2023-05-01T10:32:47;95694.94;;;12.33;68.21
58092;BME280;43896;48.178;11.578;2023-05-01T10:35:26;95656.31;;;12.17;67.92
58092;BME280;43896;48.178;11.578;2023-05-01T10:38:01;95657.13;;;12.18;67.93
58092;BME280;43896;48.178;11.578;2023-05-01T10:43:24;95691.81;;;12.38;68.79
58092;BME280;43896;48.178;11.578;2023-05-01T10:46:38;95697.28;;;12.28;68.37
58092;BME280;43896;48.178;11.578;2023-05-01T10:51:15;95657.41;;;11.92;69.80
58092;BME280;43896;48.178;11.578;2023-05-01T10:53:43;95654.78;;;11.92;71.27
58092;BME280;43896;48.178;11.578;2023-05-01T11:01:31;95644.88;;;11.05;76.47
58092;BME280;43896;48.178;11.578;2023-05-01T11:06:33;95672.88;;;10.81;79.39
58092;BME280;43896;48.178;11.578;2023-05-01T11:09:00;95654.75;;;11.03;78.99
58092;BME280;43896;48.178;11.578;2023-05-01T11:13:59;95653.53;;;11.47;75.90
58092;BME280;43896;48.178;11.578;2023-05-01T11:21:44;95658.16;;;12.09;71.76
58092;BME280;43896;48.178;11.578;2023-05-01T11:24:11;95660.44;;;12.12;72.48
58092;BME280;43896;48.178;11.578;2023-05-01T11:26:38;95650.28;;;12.00;71.64
58092;BME280;43896;48.178;11.578;2023-05-01T11:29:04;95654.34;;;12.11;72.30
58092;BME280;43896;48.178;11.578;2023-05-01T11:31:30;95638.88;;;12.08;72.91
58092;BME280;43896;48.178;11.578;2023-05-01T11:33:57;95636.09;;;12.01;74.51
58092;BME280;43896;48.178;11.578;2023-05-01T11:36:22;95629.75;;;11.79;75.74
58092;BME280;43896;48.178;11.578;2023-05-01T11:38:49;95638.66;;;11.70;75.70
58092;BME280;43896;48.178;11.578;2023-05-01T11:41:18;95654.72;;;11.44;77.93
58092;BME280;43896;48.178;11.578;2023-05-01T11:43:49;95628.34;;;11.60;76.43
58092;BME280;43896;48.178;11.578;2023-05-01T11:46:29;95653.75;;;11.37;79.67
58092;BME280;43896;48.178;11.578;2023-05-01T11:48:55;95663.28;;;10.64;83.37
58092;BME280;43896;48.178;11.578;2023-05-01T11:51:22;95638.47;;;10.58;83.66
58092;BME280;43896;48.178;11.578;2023-05-01T11:54:04;95644.34;;;11.34;79.57
58092;BME280;43896;48.178;11.578;2023-05-01T11:56:30;95658.63;;;11.64;79.07
58092;BME280;43896;48.178;11.578;2023-05-01T11:58:58;95655.25;;;11.95;77.62
58092;BME280;43896;48.178;11.578;2023-05-01T12:01:34;95661.34;;;12.27;76.49
58092;BME280;43896;48.178;11.578;2023-05-01T12:04:03;95656.63;;;12.46;74.60
58092;BME280;43896;48.178;11.578;2023-05-01T12:06:43;95651.41;;;11.50;78.31
58092;BME280;43896;48.178;11.578;2023-05-01T12:09:10;95651.25;;;12.08;77.10
58092;BME280;43896;48.178;11.578;2023-05-01T12:11:40;95660.69;;;11.94;78.88
58092;BME280;43896;48.178;11.578;2023-05-01T12:14:06;95650.03;;;12.18;75.89
58092;BME280;43896;48.178;11.578;2023-05-01T12:16:32;95665.66;;;12.51;74.95
58092;BME280;43896;48.178;11.578;2023-05-01T12:18:57;95662.22;;;11.72;80.12
58092;BME280;43896;48.178;11.578;2023-05-01T12:21:23;95656.47;;;11.68;80.17
58092;BME280;43896;48.178;11.578;2023-05-01T12:23:49;95662.78;;;11.51;79.78
58092;BME280;43896;48.178;11.578;2023-05-01T12:31:20;95653.38;;;12.12;78.71
58092;BME280;43896;48.178;11.578;2023-05-01T12:33:55;95653.75;;;11.45;81.97
58092;BME280;43896;48.178;11.578;2023-05-01T12:36:22;95639.22;;;11.49;79.52
58092;BME280;43896;48.178;11.578;2023-05-01T12:38:58;95659.97;;;11.60;81.13
58092;BME280;43896;48.178;11.578;2023-05-01T12:41:47;95664.50;;;12.54;76.87
58092;BME280;43896;48.178;11.578;2023-05-01T12:46:43;95652.75;;;13.26;73.22
58092;BME280;43896;48.178;11.578;2023-05-01T12:49:15;95651.09;;;12.87;76.07
58092;BME280;43896;48.178;11.578;2023-05-01T12:51:45;95620.63;;;12.99;74.03
58092;BME280;43896;48.178;11.578;2023-05-01T12:54:11;95632.66;;;13.40;72.39
58092;BME280;43896;48.178;11.578;2023-05-01T12:56:38;95647.41;;;12.73;78.28
58092;BME280;43896;48.178;11.578;2023-05-01T12:59:03;95651.66;;;12.51;77.71
58092;BME280;43896;48.178;11.578;2023-05-01T13:01:29;95662.00;;;13.22;75.95
58092;BME280;43896;48.178;11.578;2023-05-01T13:03:54;95655.28;;;12.96;76.57
58092;BME280;43896;48.178;11.578;2023-05-01T13:06:30;95649.09;;;12.66;76.13
58092;BME280;43896;48.178;11.578;2023-05-01T13:09:06;95662.47;;;13.25;73.24
58092;BME280;43896;48.178;11.578;2023-05-01T13:11:33;95624.63;;;13.33;69.46
58092;BME280;43896;48.178;11.578;2023-05-01T13:14:05;95662.56;;;13.70;71.24
58092;BME280;43896;48.178;11.578;2023-05-01T13:16:31;95645.22;;;13.53;72.84
58092;BME280;43896;48.178;11.578;2023-05-01T13:18:57;95641.81;;;13.67;68.78
58092;BME280;43896;48.178;11.578;2023-05-01T13:21:23;95657.88;;;13.42;71.05
58092;BME280;43896;48.178;11.578;2023-05-01T13:23:53;95662.47;;;13.63;71.54
58092;BME280;43896;48.178;11.578;2023-05-01T13:26:33;95632.19;;;12.98;74.45
58092;BME280;43896;48.178;11.578;2023-05-01T13:29:00;95614.75;;;13.27;74.86
58092;BME280;43896;48.178;11.578;2023-05-01T13:31:27;95648.59;;;14.06;70.61
58092;BME280;43896;48.178;11.578;2023-05-01T13:33:54;95632.22;;;13.81;69.62
58092;BME280;43896;48.178;11.578;2023-05-01T13:36:20;95626.81;;;14.04;69.53
58092;BME280;43896;48.178;11.578;2023-05-01T13:38:48;95651.16;;;13.40;71.17